Atlantic, Maine
Current Conditions -  °F | °C
As of 11:15 PM on Wednesday 26 Nov 2014 (Local Time) from KBHB Reporting Station
Overcast Overcast  
Wind Chill: 21°   Ceiling: 800
Heat Index: 34°   Visibility: 7mi
Dew Point: 32°   Wind: 24mph
Humidity: 93%   Direction: 20°NNE
Pressure: 29.75"   Gusts: 37mph
Location:  44.1716°N, 68.4245°W
Report Text: KBHB 270415Z AUTO 02021G32KT 7SM BKN008 OVC013 01/00 A2975 RMK AO1 P0001
Loading
Personal Weather Stations






























Interactive Weather Map New forecast layout! Learn more

10-Day Weather Forecast

Advertisements
Track Severe Weather on mobile